sensor_id;sensor_type;location;lat;lon;timestamp;temperature;humidity
60727;DHT22;46577;49.004;12.120;2023-04-25T00:00:25;9.70;99.90
60727;DHT22;46577;49.004;12.120;2023-04-25T00:02:50;9.70;99.90
60727;DHT22;46577;49.004;12.120;2023-04-25T00:05:16;9.60;99.90
60727;DHT22;46577;49.004;12.120;2023-04-25T00:07:42;9.60;99.90
60727;DHT22;46577;49.004;12.120;2023-04-25T00:10:09;9.60;99.90
60727;DHT22;46577;49.004;12.120;2023-04-25T00:12:36;9.70;99.90
60727;DHT22;46577;49.004;12.120;2023-04-25T00:15:02;9.70;99.90
60727;DHT22;46577;49.004;12.120;2023-04-25T00:17:28;9.70;99.90
60727;DHT22;46577;49.004;12.120;2023-04-25T00:19:54;9.70;99.90
60727;DHT22;46577;49.004;12.120;2023-04-25T00:22:21;9.70;99.90
60727;DHT22;46577;49.004;12.120;2023-04-25T00:24:47;9.80;99.90
60727;DHT22;46577;49.004;12.120;2023-04-25T00:27:13;9.70;99.90
60727;DHT22;46577;49.004;12.120;2023-04-25T00:29:38;9.70;99.90
60727;DHT22;46577;49.004;12.120;2023-04-25T00:32:04;9.70;99.90
60727;DHT22;46577;49.004;12.120;2023-04-25T00:34:30;9.80;99.90
60727;DHT22;46577;49.004;12.120;2023-04-25T00:36:55;9.80;99.90
60727;DHT22;46577;49.004;12.120;2023-04-25T00:39:22;9.70;99.90
60727;DHT22;46577;49.004;12.120;2023-04-25T00:41:48;9.70;99.90
60727;DHT22;46577;49.004;12.120;2023-04-25T00:44:15;9.70;99.90
60727;DHT22;46577;49.004;12.120;2023-04-25T00:46:42;9.70;99.90
60727;DHT22;46577;49.004;12.120;2023-04-25T00:49:08;9.60;99.90
60727;DHT22;46577;49.004;12.120;2023-04-25T00:51:34;9.60;99.90
60727;DHT22;46577;49.004;12.120;2023-04-25T00:54:01;9.60;99.90
60727;DHT22;46577;49.004;12.120;2023-04-25T00:56:27;9.60;99.90
60727;DHT22;46577;49.004;12.120;2023-04-25T00:58:53;9.50;99.90
60727;DHT22;46577;49.004;12.120;2023-04-25T01:01:22;9.50;99.90
60727;DHT22;46577;49.004;12.120;2023-04-25T01:03:49;9.40;99.90
60727;DHT22;46577;49.004;12.120;2023-04-25T01:06:15;9.50;99.90
60727;DHT22;46577;49.004;12.120;2023-04-25T01:08:42;9.40;99.90
60727;DHT22;46577;49.004;12.120;2023-04-25T01:11:08;9.40;99.90
60727;DHT22;46577;49.004;12.120;2023-04-25T01:13:34;9.30;99.90
60727;DHT22;46577;49.004;12.120;2023-04-25T01:16:02;9.20;99.90
60727;DHT22;46577;49.004;12.120;2023-04-25T01:18:28;9.00;99.90
60727;DHT22;46577;49.004;12.120;2023-04-25T01:20:54;9.00;99.90
60727;DHT22;46577;49.004;12.120;2023-04-25T01:23:21;9.00;99.90
60727;DHT22;46577;49.004;12.120;2023-04-25T01:25:48;9.00;99.90
60727;DHT22;46577;49.004;12.120;2023-04-25T01:28:14;9.00;99.90
60727;DHT22;46577;49.004;12.120;2023-04-25T01:30:41;9.10;99.90
60727;DHT22;46577;49.004;12.120;2023-04-25T01:33:08;9.20;99.90
60727;DHT22;46577;49.004;12.120;2023-04-25T01:35:34;9.00;99.90
60727;DHT22;46577;49.004;12.120;2023-04-25T01:38:00;9.10;99.90
60727;DHT22;46577;49.004;12.120;2023-04-25T01:40:27;9.20;99.90
60727;DHT22;46577;49.004;12.120;2023-04-25T01:42:53;9.20;99.90
60727;DHT22;46577;49.004;12.120;2023-04-25T01:45:19;9.30;99.90
60727;DHT22;46577;49.004;12.120;2023-04-25T01:47:45;9.30;99.90
60727;DHT22;46577;49.004;12.120;2023-04-25T01:50:15;9.30;99.90
60727;DHT22;46577;49.004;12.120;2023-04-25T01:52:41;9.30;99.90
60727;DHT22;46577;49.004;12.120;2023-04-25T01:55:07;9.30;99.90
60727;DHT22;46577;49.004;12.120;2023-04-25T01:57:33;9.20;99.90
60727;DHT22;46577;49.004;12.120;2023-04-25T02:00:01;9.30;99.90
60727;DHT22;46577;49.004;12.120;2023-04-25T02:02:27;9.50;99.90
60727;DHT22;46577;49.004;12.120;2023-04-25T02:04:52;9.40;99.90
60727;DHT22;46577;49.004;12.120;2023-04-25T02:07:19;9.40;99.90
60727;DHT22;46577;49.004;12.120;2023-04-25T02:09:45;9.40;99.90
60727;DHT22;46577;49.004;12.120;2023-04-25T02:12:10;9.40;99.90
60727;DHT22;46577;49.004;12.120;2023-04-25T02:14:36;9.50;99.90
60727;DHT22;46577;49.004;12.120;2023-04-25T02:17:02;9.40;99.90
60727;DHT22;46577;49.004;12.120;2023-04-25T02:19:28;9.40;99.90
60727;DHT22;46577;49.004;12.120;2023-04-25T02:21:53;9.40;99.90
60727;DHT22;46577;49.004;12.120;2023-04-25T02:24:19;9.40;99.90
60727;DHT22;46577;49.004;12.120;2023-04-25T02:26:45;9.30;99.90
60727;DHT22;46577;49.004;12.120;2023-04-25T02:29:12;9.40;99.90
60727;DHT22;46577;49.004;12.120;2023-04-25T02:31:38;9.30;99.90
60727;DHT22;46577;49.004;12.120;2023-04-25T02:34:03;9.40;99.90
60727;DHT22;46577;49.004;12.120;2023-04-25T02:36:30;9.40;99.90
60727;DHT22;46577;49.004;12.120;2023-04-25T02:38:59;9.40;99.90
60727;DHT22;46577;49.004;12.120;2023-04-25T02:41:26;9.30;99.90
60727;DHT22;46577;49.004;12.120;2023-04-25T02:43:51;9.30;99.90
60727;DHT22;46577;49.004;12.120;2023-04-25T02:46:17;9.30;99.90
60727;DHT22;46577;49.004;12.120;2023-04-25T02:48:43;9.40;99.90
60727;DHT22;46577;49.004;12.120;2023-04-25T02:51:09;9.30;99.90
60727;DHT22;46577;49.004;12.120;2023-04-25T02:53:34;9.30;99.90
60727;DHT22;46577;49.004;12.120;2023-04-25T02:56:00;9.20;99.90
60727;DHT22;46577;49.004;12.120;2023-04-25T02:58:26;9.10;99.90
60727;DHT22;46577;49.004;12.120;2023-04-25T03:00:51;9.20;99.90
60727;DHT22;46577;49.004;12.120;2023-04-25T03:03:17;9.00;99.90
60727;DHT22;46577;49.004;12.120;2023-04-25T03:05:43;9.00;99.90
60727;DHT22;46577;49.004;12.120;2023-04-25T03:08:09;8.80;99.90
60727;DHT22;46577;49.004;12.120;2023-04-25T03:10:35;8.90;99.90
60727;DHT22;46577;49.004;12.120;2023-04-25T03:13:00;8.80;99.90
60727;DHT22;46577;49.004;12.120;2023-04-25T03:15:26;9.00;99.90
60727;DHT22;46577;49.004;12.120;2023-04-25T03:17:52;8.90;99.90
60727;DHT22;46577;49.004;12.120;2023-04-25T03:20:17;9.00;99.90
60727;DHT22;46577;49.004;12.120;2023-04-25T03:22:43;9.00;99.90
60727;DHT22;46577;49.004;12.120;2023-04-25T03:25:09;8.90;99.90
60727;DHT22;46577;49.004;12.120;2023-04-25T03:27:35;9.00;99.90
60727;DHT22;46577;49.004;12.120;2023-04-25T03:30:01;9.00;99.90
60727;DHT22;46577;49.004;12.120;2023-04-25T03:32:26;9.00;99.90
60727;DHT22;46577;49.004;12.120;2023-04-25T03:34:52;9.00;99.90
60727;DHT22;46577;49.004;12.120;2023-04-25T03:37:17;9.00;99.90
60727;DHT22;46577;49.004;12.120;2023-04-25T03:39:43;9.00;99.90
60727;DHT22;46577;49.004;12.120;2023-04-25T03:42:09;9.00;99.90
60727;DHT22;46577;49.004;12.120;2023-04-25T03:44:34;9.00;99.90
60727;DHT22;46577;49.004;12.120;2023-04-25T03:47:00;8.90;99.90
60727;DHT22;46577;49.004;12.120;2023-04-25T03:49:26;8.80;99.90
60727;DHT22;46577;49.004;12.120;2023-04-25T03:51:51;8.80;99.90
60727;DHT22;46577;49.004;12.120;2023-04-25T03:54:17;8.90;99.90
60727;DHT22;46577;49.004;12.120;2023-04-25T03:56:42;8.90;99.90
60727;DHT22;46577;49.004;12.120;2023-04-25T03:59:08;8.90;99.90
60727;DHT22;46577;49.004;12.120;2023-04-25T04:01:34;8.80;99.90
60727;DHT22;46577;49.004;12.120;2023-04-25T04:03:59;8.80;99.90
60727;DHT22;46577;49.004;12.120;2023-04-25T04:06:25;8.90;99.90
60727;DHT22;46577;49.004;12.120;2023-04-25T04:08:50;8.90;99.90
60727;DHT22;46577;49.004;12.120;2023-04-25T04:11:16;9.00;99.90
60727;DHT22;46577;49.004;12.120;2023-04-25T04:13:42;8.90;99.90
60727;DHT22;46577;49.004;12.120;2023-04-25T04:16:07;9.00;99.90
60727;DHT22;46577;49.004;12.120;2023-04-25T04:18:33;9.00;99.90
60727;DHT22;46577;49.004;12.120;2023-04-25T04:20:59;9.10;99.90
60727;DHT22;46577;49.004;12.120;2023-04-25T04:23:25;9.20;99.90
60727;DHT22;46577;49.004;12.120;2023-04-25T04:25:52;9.10;99.90
60727;DHT22;46577;49.004;12.120;2023-04-25T04:28:18;9.20;99.90
60727;DHT22;46577;49.004;12.120;2023-04-25T04:30:44;9.30;99.90
60727;DHT22;46577;49.004;12.120;2023-04-25T04:33:12;9.30;99.90
60727;DHT22;46577;49.004;12.120;2023-04-25T04:35:38;9.30;99.90
60727;DHT22;46577;49.004;12.120;2023-04-25T04:38:03;9.40;99.90
60727;DHT22;46577;49.004;12.120;2023-04-25T04:40:29;9.40;99.90
60727;DHT22;46577;49.004;12.120;2023-04-25T04:42:56;9.50;99.90
60727;DHT22;46577;49.004;12.120;2023-04-25T04:45:23;9.50;99.90
60727;DHT22;46577;49.004;12.120;2023-04-25T04:47:49;9.50;99.90
60727;DHT22;46577;49.004;12.120;2023-04-25T04:50:15;9.50;99.90
60727;DHT22;46577;49.004;12.120;2023-04-25T04:52:42;9.50;99.90
60727;DHT22;46577;49.004;12.120;2023-04-25T04:55:08;9.50;99.90
60727;DHT22;46577;49.004;12.120;2023-04-25T04:57:34;9.50;99.90
60727;DHT22;46577;49.004;12.120;2023-04-25T05:00:00;9.40;99.90
60727;DHT22;46577;49.004;12.120;2023-04-25T05:02:26;9.40;99.90
60727;DHT22;46577;49.004;12.120;2023-04-25T05:04:52;9.30;99.90
60727;DHT22;46577;49.004;12.120;2023-04-25T05:07:18;9.30;99.90
60727;DHT22;46577;49.004;12.120;2023-04-25T05:09:44;9.40;99.90
60727;DHT22;46577;49.004;12.120;2023-04-25T05:12:10;9.50;99.90
60727;DHT22;46577;49.004;12.120;2023-04-25T05:14:36;9.50;99.90
60727;DHT22;46577;49.004;12.120;2023-04-25T05:17:01;9.80;99.90
60727;DHT22;46577;49.004;12.120;2023-04-25T05:19:30;10.10;99.90
60727;DHT22;46577;49.004;12.120;2023-04-25T05:21:55;10.50;99.90
60727;DHT22;46577;49.004;12.120;2023-04-25T05:24:21;10.40;99.90
60727;DHT22;46577;49.004;12.120;2023-04-25T05:26:47;10.30;99.90
60727;DHT22;46577;49.004;12.120;2023-04-25T05:29:12;10.10;99.90
60727;DHT22;46577;49.004;12.120;2023-04-25T05:31:38;10.00;99.90
60727;DHT22;46577;49.004;12.120;2023-04-25T05:34:03;10.20;99.90
60727;DHT22;46577;49.004;12.120;2023-04-25T05:36:29;11.00;99.90
60727;DHT22;46577;49.004;12.120;2023-04-25T05:38:56;12.10;99.90
60727;DHT22;46577;49.004;12.120;2023-04-25T05:41:21;13.60;98.50
60727;DHT22;46577;49.004;12.120;2023-04-25T05:43:47;14.80;96.10
60727;DHT22;46577;49.004;12.120;2023-04-25T05:46:14;14.20;92.40
60727;DHT22;46577;49.004;12.120;2023-04-25T05:48:42;15.80;91.80
60727;DHT22;46577;49.004;12.120;2023-04-25T05:51:08;15.80;91.20
60727;DHT22;46577;49.004;12.120;2023-04-25T05:53:34;15.90;90.50
60727;DHT22;46577;49.004;12.120;2023-04-25T05:55:59;16.10;90.10
60727;DHT22;46577;49.004;12.120;2023-04-25T05:58:25;16.50;88.40
60727;DHT22;46577;49.004;12.120;2023-04-25T06:00:50;17.30;83.10
60727;DHT22;46577;49.004;12.120;2023-04-25T06:03:16;17.90;80.90
60727;DHT22;46577;49.004;12.120;2023-04-25T06:05:42;18.50;75.80
60727;DHT22;46577;49.004;12.120;2023-04-25T06:08:09;18.40;75.80
60727;DHT22;46577;49.004;12.120;2023-04-25T06:10:36;18.80;72.80
60727;DHT22;46577;49.004;12.120;2023-04-25T06:13:02;18.70;69.10
60727;DHT22;46577;49.004;12.120;2023-04-25T06:15:27;18.60;70.20
60727;DHT22;46577;49.004;12.120;2023-04-25T06:17:53;18.80;71.50
60727;DHT22;46577;49.004;12.120;2023-04-25T06:20:19;19.10;68.70
60727;DHT22;46577;49.004;12.120;2023-04-25T06:22:48;19.30;65.70
60727;DHT22;46577;49.004;12.120;2023-04-25T06:25:15;19.60;64.50
60727;DHT22;46577;49.004;12.120;2023-04-25T06:27:40;19.70;63.80
60727;DHT22;46577;49.004;12.120;2023-04-25T06:30:06;19.90;61.30
60727;DHT22;46577;49.004;12.120;2023-04-25T06:32:32;19.60;61.70
60727;DHT22;46577;49.004;12.120;2023-04-25T06:34:59;20.20;58.40
60727;DHT22;46577;49.004;12.120;2023-04-25T06:37:25;20.50;59.60
60727;DHT22;46577;49.004;12.120;2023-04-25T06:39:50;22.00;56.30
60727;DHT22;46577;49.004;12.120;2023-04-25T06:42:16;22.50;51.60
60727;DHT22;46577;49.004;12.120;2023-04-25T06:44:42;22.40;50.80
60727;DHT22;46577;49.004;12.120;2023-04-25T06:47:07;21.60;51.80
60727;DHT22;46577;49.004;12.120;2023-04-25T06:49:33;21.60;54.00
60727;DHT22;46577;49.004;12.120;2023-04-25T06:51:58;22.20;51.50
60727;DHT22;46577;49.004;12.120;2023-04-25T06:54:24;21.10;52.10
60727;DHT22;46577;49.004;12.120;2023-04-25T06:56:52;22.10;51.40
60727;DHT22;46577;49.004;12.120;2023-04-25T06:59:18;23.60;48.50
60727;DHT22;46577;49.004;12.120;2023-04-25T07:01:44;23.00;47.40
60727;DHT22;46577;49.004;12.120;2023-04-25T07:04:09;21.70;48.80
60727;DHT22;46577;49.004;12.120;2023-04-25T07:06:35;20.60;51.00
60727;DHT22;46577;49.004;12.120;2023-04-25T07:09:03;20.00;52.20
60727;DHT22;46577;49.004;12.120;2023-04-25T07:11:30;19.10;52.60
60727;DHT22;46577;49.004;12.120;2023-04-25T07:13:55;17.30;55.90
60727;DHT22;46577;49.004;12.120;2023-04-25T07:16:21;16.40;58.40
60727;DHT22;46577;49.004;12.120;2023-04-25T07:18:46;17.50;58.30
60727;DHT22;46577;49.004;12.120;2023-04-25T07:21:12;19.00;55.80
60727;DHT22;46577;49.004;12.120;2023-04-25T07:23:38;21.00;52.30
60727;DHT22;46577;49.004;12.120;2023-04-25T07:26:06;22.20;48.60
60727;DHT22;46577;49.004;12.120;2023-04-25T07:28:31;21.90;47.50
60727;DHT22;46577;49.004;12.120;2023-04-25T07:30:57;22.70;45.80
60727;DHT22;46577;49.004;12.120;2023-04-25T07:33:23;23.80;44.90
60727;DHT22;46577;49.004;12.120;2023-04-25T07:35:49;24.10;42.50
60727;DHT22;46577;49.004;12.120;2023-04-25T07:38:15;23.00;43.50
60727;DHT22;46577;49.004;12.120;2023-04-25T07:40:41;22.60;45.20
60727;DHT22;46577;49.004;12.120;2023-04-25T07:43:07;21.30;45.40
60727;DHT22;46577;49.004;12.120;2023-04-25T07:45:32;20.50;47.80
60727;DHT22;46577;49.004;12.120;2023-04-25T07:47:58;19.20;48.30
60727;DHT22;46577;49.004;12.120;2023-04-25T07:50:23;18.10;51.30
60727;DHT22;46577;49.004;12.120;2023-04-25T07:52:49;17.40;52.40
60727;DHT22;46577;49.004;12.120;2023-04-25T07:55:15;17.50;54.20
60727;DHT22;46577;49.004;12.120;2023-04-25T07:57:40;17.80;53.30
60727;DHT22;46577;49.004;12.120;2023-04-25T08:00:07;17.10;54.10
60727;DHT22;46577;49.004;12.120;2023-04-25T08:02:37;16.80;55.20
60727;DHT22;46577;49.004;12.120;2023-04-25T08:05:02;16.40;55.70
60727;DHT22;46577;49.004;12.120;2023-04-25T08:07:28;16.20;57.50
60727;DHT22;46577;49.004;12.120;2023-04-25T08:09:54;16.80;57.50
60727;DHT22;46577;49.004;12.120;2023-04-25T08:12:20;17.80;54.00
60727;DHT22;46577;49.004;12.120;2023-04-25T08:14:45;18.90;53.10
60727;DHT22;46577;49.004;12.120;2023-04-25T08:17:11;21.10;49.20
60727;DHT22;46577;49.004;12.120;2023-04-25T08:19:37;21.10;48.00
60727;DHT22;46577;49.004;12.120;2023-04-25T08:22:03;21.60;47.50
60727;DHT22;46577;49.004;12.120;2023-04-25T08:24:29;21.00;46.50
60727;DHT22;46577;49.004;12.120;2023-04-25T08:26:54;21.70;45.50
60727;DHT22;46577;49.004;12.120;2023-04-25T08:29:20;20.40;46.50
60727;DHT22;46577;49.004;12.120;2023-04-25T08:31:46;21.00;47.70
60727;DHT22;46577;49.004;12.120;2023-04-25T08:34:11;23.50;45.00
60727;DHT22;46577;49.004;12.120;2023-04-25T08:36:37;26.60;39.10
60727;DHT22;46577;49.004;12.120;2023-04-25T08:39:03;26.80;35.00
60727;DHT22;46577;49.004;12.120;2023-04-25T08:41:28;25.40;36.80
60727;DHT22;46577;49.004;12.120;2023-04-25T08:43:56;24.30;38.80
60727;DHT22;46577;49.004;12.120;2023-04-25T08:46:23;24.10;38.60
60727;DHT22;46577;49.004;12.120;2023-04-25T08:48:49;24.40;38.50
60727;DHT22;46577;49.004;12.120;2023-04-25T08:51:23;23.40;39.40
60727;DHT22;46577;49.004;12.120;2023-04-25T08:53:53;22.60;40.30
60727;DHT22;46577;49.004;12.120;2023-04-25T08:56:19;21.60;41.10
60727;DHT22;46577;49.004;12.120;2023-04-25T08:58:50;20.50;43.60
60727;DHT22;46577;49.004;12.120;2023-04-25T09:01:17;20.10;44.20
60727;DHT22;46577;49.004;12.120;2023-04-25T09:03:44;20.60;45.10
60727;DHT22;46577;49.004;12.120;2023-04-25T09:06:11;22.00;42.10
60727;DHT22;46577;49.004;12.120;2023-04-25T09:08:37;21.70;41.60
60727;DHT22;46577;49.004;12.120;2023-04-25T09:11:02;21.20;42.50
60727;DHT22;46577;49.004;12.120;2023-04-25T09:13:29;20.40;44.10
60727;DHT22;46577;49.004;12.120;2023-04-25T09:15:56;20.00;45.20
60727;DHT22;46577;49.004;12.120;2023-04-25T09:18:30;19.50;46.00
60727;DHT22;46577;49.004;12.120;2023-04-25T09:20:58;20.30;46.00
60727;DHT22;46577;49.004;12.120;2023-04-25T09:23:30;19.70;46.10
60727;DHT22;46577;49.004;12.120;2023-04-25T09:25:55;18.70;49.10
60727;DHT22;46577;49.004;12.120;2023-04-25T09:28:26;19.70;49.80
60727;DHT22;46577;49.004;12.120;2023-04-25T09:30:56;21.60;46.10
60727;DHT22;46577;49.004;12.120;2023-04-25T09:33:28;21.50;45.20
60727;DHT22;46577;49.004;12.120;2023-04-25T09:36:07;20.70;47.30
60727;DHT22;46577;49.004;12.120;2023-04-25T09:38:44;20.90;46.90
60727;DHT22;46577;49.004;12.120;2023-04-25T09:41:10;20.10;46.60
60727;DHT22;46577;49.004;12.120;2023-04-25T09:43:37;19.60;48.30
60727;DHT22;46577;49.004;12.120;2023-04-25T09:46:07;19.00;49.30
60727;DHT22;46577;49.004;12.120;2023-04-25T09:48:33;20.00;49.60
60727;DHT22;46577;49.004;12.120;2023-04-25T09:51:12;20.80;45.50
60727;DHT22;46577;49.004;12.120;2023-04-25T09:53:43;22.00;44.30
60727;DHT22;46577;49.004;12.120;2023-04-25T09:56:10;22.90;43.50
60727;DHT22;46577;49.004;12.120;2023-04-25T09:58:38;22.00;44.40
60727;DHT22;46577;49.004;12.120;2023-04-25T10:01:06;21.20;48.20
60727;DHT22;46577;49.004;12.120;2023-04-25T10:03:34;19.80;51.60
60727;DHT22;46577;49.004;12.120;2023-04-25T10:06:02;19.20;52.70
60727;DHT22;46577;49.004;12.120;2023-04-25T10:08:32;18.60;53.40
60727;DHT22;46577;49.004;12.120;2023-04-25T10:11:00;18.30;51.70
60727;DHT22;46577;49.004;12.120;2023-04-25T10:13:29;17.80;53.50
60727;DHT22;46577;49.004;12.120;2023-04-25T10:15:57;18.10;53.80
60727;DHT22;46577;49.004;12.120;2023-04-25T10:18:25;18.50;52.10
60727;DHT22;46577;49.004;12.120;2023-04-25T10:20:51;18.70;51.20
60727;DHT22;46577;49.004;12.120;2023-04-25T10:23:17;18.90;51.90
60727;DHT22;46577;49.004;12.120;2023-04-25T10:25:43;19.10;50.60
60727;DHT22;46577;49.004;12.120;2023-04-25T10:28:09;19.10;50.90
60727;DHT22;46577;49.004;12.120;2023-04-25T10:30:34;18.80;50.00
60727;DHT22;46577;49.004;12.120;2023-04-25T10:33:00;18.30;52.00
60727;DHT22;46577;49.004;12.120;2023-04-25T10:35:28;18.50;51.80
60727;DHT22;46577;49.004;12.120;2023-04-25T10:38:09;18.30;52.30
60727;DHT22;46577;49.004;12.120;2023-04-25T10:40:38;17.60;54.20
60727;DHT22;46577;49.004;12.120;2023-04-25T10:46:01;16.30;59.50
60727;DHT22;46577;49.004;12.120;2023-04-25T10:48:28;15.90;61.70
60727;DHT22;46577;49.004;12.120;2023-04-25T10:51:10;15.90;62.50
60727;DHT22;46577;49.004;12.120;2023-04-25T10:53:36;16.10;63.40
60727;DHT22;46577;49.004;12.120;2023-04-25T10:56:17;17.20;60.90
60727;DHT22;46577;49.004;12.120;2023-04-25T10:58:46;19.00;57.70
60727;DHT22;46577;49.004;12.120;2023-04-25T11:01:13;21.50;54.50
60727;DHT22;46577;49.004;12.120;2023-04-25T11:03:43;24.20;47.40
60727;DHT22;46577;49.004;12.120;2023-04-25T11:06:22;25.50;43.80
60727;DHT22;46577;49.004;12.120;2023-04-25T11:08:49;24.50;42.10
60727;DHT22;46577;49.004;12.120;2023-04-25T11:11:18;23.80;43.40
60727;DHT22;46577;49.004;12.120;2023-04-25T11:13:48;22.60;43.70
60727;DHT22;46577;49.004;12.120;2023-04-25T11:16:14;21.30;45.00
60727;DHT22;46577;49.004;12.120;2023-04-25T11:18:44;20.30;46.80
60727;DHT22;46577;49.004;12.120;2023-04-25T11:21:11;19.60;48.10
60727;DHT22;46577;49.004;12.120;2023-04-25T11:23:37;19.20;48.00
60727;DHT22;46577;49.004;12.120;2023-04-25T11:26:03;18.60;47.70
60727;DHT22;46577;49.004;12.120;2023-04-25T11:28:29;18.40;47.60
60727;DHT22;46577;49.004;12.120;2023-04-25T11:30:56;18.10;47.90
60727;DHT22;46577;49.004;12.120;2023-04-25T11:33:25;17.90;49.10
60727;DHT22;46577;49.004;12.120;2023-04-25T11:35:53;17.40;49.10
60727;DHT22;46577;49.004;12.120;2023-04-25T11:38:20;17.30;50.00
60727;DHT22;46577;49.004;12.120;2023-04-25T11:40:52;17.50;51.60
60727;DHT22;46577;49.004;12.120;2023-04-25T11:43:21;18.20;49.70
60727;DHT22;46577;49.004;12.120;2023-04-25T11:45:50;19.70;46.60
60727;DHT22;46577;49.004;12.120;2023-04-25T11:48:17;21.00;45.20
60727;DHT22;46577;49.004;12.120;2023-04-25T11:50:43;21.90;43.10
60727;DHT22;46577;49.004;12.120;2023-04-25T11:53:09;22.00;43.00
60727;DHT22;46577;49.004;12.120;2023-04-25T11:55:35;21.90;40.10
60727;DHT22;46577;49.004;12.120;2023-04-25T11:58:01;20.60;41.50
60727;DHT22;46577;49.004;12.120;2023-04-25T12:00:28;20.10;43.40
60727;DHT22;46577;49.004;12.120;2023-04-25T12:02:55;20.00;43.90
60727;DHT22;46577;49.004;12.120;2023-04-25T12:05:27;19.50;43.40
60727;DHT22;46577;49.004;12.120;2023-04-25T12:07:54;19.10;43.70
60727;DHT22;46577;49.004;12.120;2023-04-25T12:10:20;18.40;44.30
60727;DHT22;46577;49.004;12.120;2023-04-25T12:12:47;18.40;45.50
60727;DHT22;46577;49.004;12.120;2023-04-25T12:17:41;18.30;45.20
60727;DHT22;46577;49.004;12.120;2023-04-25T12:20:20;18.60;46.80
60727;DHT22;46577;49.004;12.120;2023-04-25T12:22:49;19.30;47.10
60727;DHT22;46577;49.004;12.120;2023-04-25T12:25:43;19.30;42.00
60727;DHT22;46577;49.004;12.120;2023-04-25T12:28:17;19.40;41.10
60727;DHT22;46577;49.004;12.120;2023-04-25T12:31:04;19.50;41.60
60727;DHT22;46577;49.004;12.120;2023-04-25T12:35:57;19.10;42.90
60727;DHT22;46577;49.004;12.120;2023-04-25T12:38:27;18.80;43.40
60727;DHT22;46577;49.004;12.120;2023-04-25T12:40:54;18.50;43.80
60727;DHT22;46577;49.004;12.120;2023-04-25T12:43:20;18.20;44.20
60727;DHT22;46577;49.004;12.120;2023-04-25T12:45:54;17.90;44.00
60727;DHT22;46577;49.004;12.120;2023-04-25T12:48:20;17.50;45.10
60727;DHT22;46577;49.004;12.120;2023-04-25T12:50:47;17.50;45.30
60727;DHT22;46577;49.004;12.120;2023-04-25T12:53:18;17.70;45.30
60727;DHT22;46577;49.004;12.120;2023-04-25T12:55:44;17.70;45.40
60727;DHT22;46577;49.004;12.120;2023-04-25T12:58:16;17.90;44.90
60727;DHT22;46577;49.004;12.120;2023-04-25T13:00:43;17.80;46.00
60727;DHT22;46577;49.004;12.120;2023-04-25T13:03:09;18.10;45.30
60727;DHT22;46577;49.004;12.120;2023-04-25T13:05:36;18.20;44.80
60727;DHT22;46577;49.004;12.120;2023-04-25T13:08:02;18.40;44.70
60727;DHT22;46577;49.004;12.120;2023-04-25T13:10:27;18.50;44.80
60727;DHT22;46577;49.004;12.120;2023-04-25T13:12:53;18.70;42.90
60727;DHT22;46577;49.004;12.120;2023-04-25T13:15:19;17.90;44.00
60727;DHT22;46577;49.004;12.120;2023-04-25T13:17:45;17.90;45.30
60727;DHT22;46577;49.004;12.120;2023-04-25T13:20:10;18.00;45.30
60727;DHT22;46577;49.004;12.120;2023-04-25T13:22:39;18.00;44.50
60727;DHT22;46577;49.004;12.120;2023-04-25T13:25:06;17.70;45.20
60727;DHT22;46577;49.004;12.120;2023-04-25T13:27:33;17.10;44.50
60727;DHT22;46577;49.004;12.120;2023-04-25T13:30:00;16.60;45.80
60727;DHT22;46577;49.004;12.120;2023-04-25T13:32:26;16.20;46.40
60727;DHT22;46577;49.004;12.120;2023-04-25T13:34:53;16.20;47.10
60727;DHT22;46577;49.004;12.120;2023-04-25T13:37:18;16.20;47.80
60727;DHT22;46577;49.004;12.120;2023-04-25T13:39:44;16.20;47.90
60727;DHT22;46577;49.004;12.120;2023-04-25T13:42:10;16.10;47.90
60727;DHT22;46577;49.004;12.120;2023-04-25T13:44:36;16.10;48.60
60727;DHT22;46577;49.004;12.120;2023-04-25T13:47:02;15.80;49.10
60727;DHT22;46577;49.004;12.120;2023-04-25T13:49:28;15.70;49.90
60727;DHT22;46577;49.004;12.120;2023-04-25T13:51:53;16.00;51.00
60727;DHT22;46577;49.004;12.120;2023-04-25T13:54:19;16.10;50.80
60727;DHT22;46577;49.004;12.120;2023-04-25T13:56:45;16.30;50.70
60727;DHT22;46577;49.004;12.120;2023-04-25T13:59:11;16.20;49.20
60727;DHT22;46577;49.004;12.120;2023-04-25T14:01:36;16.20;48.90
60727;DHT22;46577;49.004;12.120;2023-04-25T14:04:02;15.90;49.70
60727;DHT22;46577;49.004;12.120;2023-04-25T14:06:31;15.70;50.40
60727;DHT22;46577;49.004;12.120;2023-04-25T14:08:57;15.60;51.20
60727;DHT22;46577;49.004;12.120;2023-04-25T14:11:22;15.30;51.00
60727;DHT22;46577;49.004;12.120;2023-04-25T14:13:48;15.30;51.30
60727;DHT22;46577;49.004;12.120;2023-04-25T14:16:15;15.10;52.30
60727;DHT22;46577;49.004;12.120;2023-04-25T14:18:41;15.10;51.30
60727;DHT22;46577;49.004;12.120;2023-04-25T14:21:06;15.20;51.50
60727;DHT22;46577;49.004;12.120;2023-04-25T14:23:32;15.20;51.90
60727;DHT22;46577;49.004;12.120;2023-04-25T14:25:57;15.00;50.30
60727;DHT22;46577;49.004;12.120;2023-04-25T14:28:23;15.10;50.90
60727;DHT22;46577;49.004;12.120;2023-04-25T14:30:49;15.20;50.70
60727;DHT22;46577;49.004;12.120;2023-04-25T14:33:14;15.50;50.70
60727;DHT22;46577;49.004;12.120;2023-04-25T14:35:40;15.60;53.20
60727;DHT22;46577;49.004;12.120;2023-04-25T14:38:05;15.60;51.50
60727;DHT22;46577;49.004;12.120;2023-04-25T14:40:31;15.70;51.60
60727;DHT22;46577;49.004;12.120;2023-04-25T14:42:57;15.60;57.80
60727;DHT22;46577;49.004;12.120;2023-04-25T14:45:22;15.60;49.70
60727;DHT22;46577;49.004;12.120;2023-04-25T14:47:48;15.50;50.60
60727;DHT22;46577;49.004;12.120;2023-04-25T14:50:14;15.40;50.80
60727;DHT22;46577;49.004;12.120;2023-04-25T14:52:40;15.00;51.00
60727;DHT22;46577;49.004;12.120;2023-04-25T14:55:05;15.00;51.90
60727;DHT22;46577;49.004;12.120;2023-04-25T14:57:33;15.20;51.40
60727;DHT22;46577;49.004;12.120;2023-04-25T14:59:59;15.30;50.10
60727;DHT22;46577;49.004;12.120;2023-04-25T15:02:24;15.10;49.80
60727;DHT22;46577;49.004;12.120;2023-04-25T15:04:51;15.10;50.40
60727;DHT22;46577;49.004;12.120;2023-04-25T15:07:16;15.10;49.60
60727;DHT22;46577;49.004;12.120;2023-04-25T15:09:42;14.60;50.30
60727;DHT22;46577;49.004;12.120;2023-04-25T15:12:08;14.40;49.60
60727;DHT22;46577;49.004;12.120;2023-04-25T15:14:34;14.10;50.00
60727;DHT22;46577;49.004;12.120;2023-04-25T15:17:00;14.20;50.70
60727;DHT22;46577;49.004;12.120;2023-04-25T15:19:26;14.20;51.00
60727;DHT22;46577;49.004;12.120;2023-04-25T15:21:51;14.30;50.80
60727;DHT22;46577;49.004;12.120;2023-04-25T15:24:17;14.50;51.40